createdAt,value
2018-12-03T00:02:19.006Z,12.40
2018-12-03T00:06:59.625Z,12.40
2018-12-03T00:11:40.204Z,12.40
2018-12-03T00:16:20.263Z,12.40
2018-12-03T00:21:01.023Z,12.40
2018-12-03T00:25:41.444Z,12.40
2018-12-03T00:30:21.884Z,12.40
2018-12-03T00:35:01.749Z,12.40
2018-12-03T00:39:42.014Z,12.50
2018-12-03T00:44:22.786Z,12.50
2018-12-03T00:49:02.784Z,12.50
2018-12-03T00:53:43.328Z,12.50
2018-12-03T00:58:23.461Z,12.50
2018-12-03T01:03:03.500Z,12.50
2018-12-03T01:07:44.432Z,12.50
2018-12-03T01:12:25.712Z,12.50
2018-12-03T01:17:05.789Z,12.50
2018-12-03T01:21:46.376Z,12.50
2018-12-03T01:26:27.049Z,12.50
2018-12-03T01:31:08.157Z,12.50
2018-12-03T01:35:48.453Z,12.50
2018-12-03T01:40:28.359Z,12.50
2018-12-03T01:45:10.970Z,12.50
2018-12-03T01:49:51.143Z,12.50
2018-12-03T01:54:31.321Z,12.50
2018-12-03T01:59:11.401Z,12.50
2018-12-03T02:03:51.521Z,12.50
2018-12-03T02:08:31.392Z,12.40
2018-12-03T02:13:11.832Z,12.50
2018-12-03T02:17:52.408Z,12.40
2018-12-03T02:22:33.201Z,12.40
2018-12-03T02:27:13.177Z,12.40
2018-12-03T02:31:53.959Z,12.40
2018-12-03T02:36:33.809Z,12.40
2018-12-03T02:41:13.844Z,12.40
2018-12-03T02:45:54.937Z,12.40
2018-12-03T02:50:35.559Z,12.40
2018-12-03T02:55:15.717Z,12.40
2018-12-03T02:59:55.809Z,12.40
2018-12-03T03:04:36.743Z,12.40
2018-12-03T03:09:16.630Z,12.40
2018-12-03T03:13:56.952Z,12.50
2018-12-03T03:18:36.886Z,12.50
2018-12-03T03:23:16.920Z,12.50
2018-12-03T03:27:57.196Z,12.50
2018-12-03T03:32:37.463Z,12.50
2018-12-03T03:37:18.859Z,12.50
2018-12-03T03:41:59.019Z,12.50
2018-12-03T03:46:38.990Z,12.50
2018-12-03T03:51:19.619Z,12.50
2018-12-03T03:56:00.187Z,12.50
2018-12-03T04:00:40.698Z,12.50
2018-12-03T04:05:20.977Z,12.50
2018-12-03T04:10:04.589Z,12.50
2018-12-03T04:14:44.754Z,12.50
2018-12-03T04:19:24.892Z,12.50
2018-12-03T04:24:10.278Z,12.40
2018-12-03T04:28:50.817Z,12.40
2018-12-03T04:33:30.827Z,12.40
2018-12-03T04:38:10.780Z,12.40
2018-12-03T04:42:50.940Z,12.40
2018-12-03T04:47:31.188Z,12.40
2018-12-03T04:52:11.465Z,12.40
2018-12-03T04:56:51.557Z,12.40
2018-12-03T05:01:31.674Z,12.40
2018-12-03T05:06:11.814Z,12.40
2018-12-03T05:10:51.728Z,12.40
2018-12-03T05:15:31.956Z,12.40
2018-12-03T05:20:14.736Z,12.40
2018-12-03T05:24:54.856Z,12.30
2018-12-03T05:29:34.906Z,12.40
2018-12-03T05:34:14.968Z,12.40
2018-12-03T05:38:56.064Z,12.30
2018-12-03T05:43:35.724Z,12.40
2018-12-03T05:48:15.954Z,12.30
2018-12-03T05:52:55.881Z,12.30
2018-12-03T05:57:36.882Z,12.30
2018-12-03T06:02:18.190Z,12.30
2018-12-03T06:06:58.366Z,12.20
2018-12-03T06:11:38.232Z,12.20
2018-12-03T06:16:18.187Z,12.10
2018-12-03T06:20:58.292Z,12.10
2018-12-03T06:25:38.608Z,12.20
2018-12-03T06:30:20.291Z,12.30
2018-12-03T06:35:00.286Z,12.30
2018-12-03T06:39:40.272Z,12.30
2018-12-03T06:44:20.514Z,12.30
2018-12-03T06:49:00.372Z,12.30
2018-12-03T06:53:40.232Z,12.30
2018-12-03T06:58:20.313Z,12.40
2018-12-03T07:03:00.396Z,12.40
2018-12-03T07:07:40.889Z,12.30
2018-12-03T07:12:20.684Z,12.30
2018-12-03T07:17:00.682Z,12.30
2018-12-03T07:21:41.109Z,12.30
2018-12-03T07:26:21.876Z,12.10
2018-12-03T07:31:01.831Z,12.00
2018-12-03T07:35:41.785Z,11.90
2018-12-03T07:40:21.717Z,11.80
2018-12-03T07:45:01.871Z,11.70
2018-12-03T07:49:42.672Z,11.70
2018-12-03T07:54:23.796Z,11.60
2018-12-03T07:59:04.009Z,11.60
2018-12-03T08:03:44.507Z,11.60
2018-12-03T08:08:24.752Z,11.60
2018-12-03T08:13:05.177Z,11.50
2018-12-03T08:17:46.807Z,11.50
2018-12-03T08:22:26.867Z,11.60
2018-12-03T08:27:06.961Z,11.60
2018-12-03T08:31:47.066Z,11.60
2018-12-03T08:36:27.308Z,11.60
2018-12-03T08:41:08.195Z,11.50
2018-12-03T08:45:49.345Z,11.40
2018-12-03T08:50:29.897Z,11.30
2018-12-03T08:55:11.764Z,11.20
2018-12-03T08:59:52.369Z,11.10
2018-12-03T09:04:33.755Z,11.00
2018-12-03T09:09:15.436Z,11.10
2018-12-03T09:13:56.196Z,11.20
2018-12-03T09:18:40.154Z,11.30
2018-12-03T09:23:20.228Z,11.30
2018-12-03T09:28:00.936Z,11.30
2018-12-03T09:32:41.277Z,11.30
2018-12-03T09:37:21.231Z,11.30
2018-12-03T09:42:02.970Z,11.30
2018-12-03T09:46:43.363Z,11.40
2018-12-03T09:51:23.853Z,11.40
2018-12-03T09:56:03.884Z,11.40
2018-12-03T10:00:44.458Z,11.40
2018-12-03T10:05:26.124Z,11.50
2018-12-03T10:10:10.909Z,11.50
2018-12-03T10:14:50.979Z,11.50
2018-12-03T10:19:31.374Z,11.60
2018-12-03T10:24:12.672Z,11.80
2018-12-03T10:28:52.501Z,11.90
2018-12-03T10:33:33.866Z,12.00
2018-12-03T10:38:16.856Z,12.10
2018-12-03T10:42:57.042Z,12.10
2018-12-03T10:47:37.685Z,12.20
2018-12-03T10:52:20.160Z,12.30
2018-12-03T10:57:03.656Z,12.30
2018-12-03T11:01:53.731Z,12.30
2018-12-03T11:06:34.290Z,12.30
2018-12-03T11:11:14.572Z,12.40
2018-12-03T11:15:54.609Z,12.40
2018-12-03T11:20:34.677Z,12.40
2018-12-03T11:25:16.998Z,12.40
2018-12-03T11:29:56.980Z,12.40
2018-12-03T11:34:37.124Z,12.40
2018-12-03T11:39:27.074Z,12.40
2018-12-03T11:44:07.320Z,12.50
2018-12-03T11:48:48.137Z,12.50
2018-12-03T11:53:28.480Z,12.60
2018-12-03T11:58:08.690Z,12.60
2018-12-03T12:02:48.618Z,12.60
2018-12-03T12:07:28.841Z,12.60
2018-12-03T12:12:09.168Z,12.60
2018-12-03T12:16:49.119Z,12.80
2018-12-03T12:21:30.465Z,12.80
2018-12-03T12:26:11.580Z,12.90
2018-12-03T12:30:52.299Z,13.00
2018-12-03T12:35:32.588Z,13.00
2018-12-03T12:40:13.784Z,13.00
2018-12-03T12:44:55.389Z,13.00
2018-12-03T12:49:35.548Z,12.90
2018-12-03T12:54:15.500Z,13.00
2018-12-03T12:58:56.115Z,13.20
2018-12-03T13:03:36.140Z,13.20
2018-12-03T13:08:16.200Z,13.20
2018-12-03T13:12:56.542Z,13.20
2018-12-03T13:17:36.405Z,13.10
2018-12-03T13:22:17.130Z,13.00
2018-12-03T13:26:57.929Z,12.90
2018-12-03T13:31:38.153Z,12.90
2018-12-03T13:36:17.991Z,12.80
2018-12-03T13:40:58.306Z,12.80
2018-12-03T13:45:38.166Z,12.80
2018-12-03T13:50:18.360Z,12.80
2018-12-03T13:54:58.781Z,12.70
2018-12-03T13:59:39.188Z,12.70
2018-12-03T14:04:19.584Z,12.70
2018-12-03T14:11:16.930Z,12.70
2018-12-03T14:16:08.618Z,12.70
2018-12-03T14:20:50.476Z,12.70
2018-12-03T14:25:30.501Z,12.60
2018-12-03T14:30:11.755Z,12.60
2018-12-03T14:34:51.755Z,12.60
2018-12-03T14:39:32.030Z,12.60
2018-12-03T14:44:12.803Z,12.50
2018-12-03T14:48:52.784Z,12.50
2018-12-03T14:53:32.820Z,12.40
2018-12-03T14:58:13.224Z,12.40
2018-12-03T15:02:53.180Z,12.40
2018-12-03T15:07:33.824Z,12.30
2018-12-03T15:12:13.951Z,12.30
2018-12-03T15:16:54.124Z,12.30
2018-12-03T15:21:34.007Z,12.30
2018-12-03T15:26:14.032Z,12.30
2018-12-03T15:30:54.035Z,12.30
2018-12-03T15:35:34.484Z,12.30
2018-12-03T15:40:16.220Z,12.30
2018-12-03T15:44:56.729Z,12.30
2018-12-03T15:49:37.729Z,12.30
2018-12-03T15:54:17.822Z,12.20
2018-12-03T15:58:58.227Z,12.20
2018-12-03T16:03:38.817Z,12.20
2018-12-03T16:08:19.637Z,12.20
2018-12-03T16:12:59.681Z,12.20
2018-12-03T16:17:40.519Z,12.20
2018-12-03T16:22:20.655Z,12.10
2018-12-03T16:27:00.480Z,12.20
2018-12-03T16:31:40.708Z,12.20
2018-12-03T16:36:20.713Z,12.10
2018-12-03T16:41:01.993Z,12.10
2018-12-03T16:45:42.048Z,12.10
2018-12-03T16:50:22.232Z,12.10
2018-12-03T16:55:02.320Z,12.10
2018-12-03T16:59:42.800Z,12.10
2018-12-03T17:04:22.640Z,12.10
2018-12-03T17:09:02.757Z,12.00
2018-12-03T17:13:43.325Z,11.90
2018-12-03T17:18:23.338Z,11.80
2018-12-03T17:23:13.101Z,11.80
2018-12-03T17:27:53.850Z,11.80
2018-12-03T17:32:33.720Z,11.70
2018-12-03T17:37:13.544Z,11.60
2018-12-03T17:42:29.681Z,11.50
2018-12-03T17:47:08.458Z,11.50
2018-12-03T17:51:47.253Z,11.40
2018-12-03T17:56:26.039Z,11.40
2018-12-03T18:01:05.287Z,11.40
2018-12-03T18:05:44.337Z,11.30
2018-12-03T18:10:23.104Z,11.30
2018-12-03T18:15:01.989Z,11.20
2018-12-03T18:19:40.731Z,11.10
2018-12-03T18:24:19.470Z,11.10
2018-12-03T18:28:58.224Z,11.00
2018-12-03T18:33:37.500Z,10.90
2018-12-03T18:38:16.299Z,10.90
2018-12-03T18:42:55.135Z,10.90
2018-12-03T18:47:34.161Z,10.90
2018-12-03T18:52:12.912Z,10.90
2018-12-03T18:56:51.744Z,10.90
2018-12-03T19:01:30.678Z,10.90
2018-12-03T19:06:09.839Z,10.90
2018-12-03T19:10:49.000Z,10.90
2018-12-03T19:15:27.706Z,10.80
2018-12-03T19:20:07.611Z,10.70
2018-12-03T19:24:46.570Z,10.70
2018-12-03T19:29:25.350Z,10.60
2018-12-03T19:34:04.179Z,10.60
2018-12-03T19:38:43.076Z,10.60
2018-12-03T19:43:21.841Z,10.50
2018-12-03T19:48:00.939Z,10.50
2018-12-03T19:52:39.918Z,10.50
2018-12-03T19:57:19.595Z,10.50
2018-12-03T20:01:58.244Z,10.50
2018-12-03T20:06:37.065Z,10.50
2018-12-03T20:11:15.921Z,10.40
2018-12-03T20:15:54.741Z,10.40
2018-12-03T20:20:33.501Z,10.40
2018-12-03T20:25:12.994Z,10.40
2018-12-03T20:29:51.761Z,10.40
2018-12-03T20:34:30.627Z,10.40
2018-12-03T20:39:13.409Z,10.40
2018-12-03T20:43:52.075Z,10.40
2018-12-03T20:48:33.999Z,10.40
2018-12-03T20:53:12.829Z,10.40
2018-12-03T20:57:51.408Z,10.40
2018-12-03T21:02:30.314Z,10.40
2018-12-03T21:07:08.877Z,10.40
2018-12-03T21:11:47.816Z,10.40
2018-12-03T21:16:26.675Z,10.40
2018-12-03T21:21:05.464Z,10.40
2018-12-03T21:25:44.188Z,10.40
2018-12-03T21:30:23.802Z,10.40
2018-12-03T21:35:03.520Z,10.30
2018-12-03T21:39:47.916Z,10.20
2018-12-03T21:44:23.369Z,10.20
2018-12-03T21:49:02.315Z,10.20
2018-12-03T21:53:41.374Z,10.30
2018-12-03T21:58:20.336Z,10.30
2018-12-03T22:02:59.146Z,10.30
2018-12-03T22:07:37.983Z,10.20
2018-12-03T22:12:16.765Z,10.30
2018-12-03T22:16:55.588Z,10.30
2018-12-03T22:21:34.299Z,10.30
2018-12-03T22:26:13.069Z,10.30
2018-12-03T22:30:52.004Z,10.30
2018-12-03T22:35:30.746Z,10.30
2018-12-03T22:40:09.618Z,10.30
2018-12-03T22:44:48.296Z,10.30
2018-12-03T22:49:27.226Z,10.30
2018-12-03T22:54:06.087Z,10.30
2018-12-03T22:58:44.927Z,10.30
2018-12-03T23:03:23.663Z,10.30
2018-12-03T23:08:02.513Z,10.20
2018-12-03T23:12:41.283Z,10.20
2018-12-03T23:17:20.148Z,10.20
2018-12-03T23:21:58.902Z,10.10
2018-12-03T23:26:37.722Z,10.10
2018-12-03T23:31:16.556Z,10.10
2018-12-03T23:35:55.212Z,10.10
2018-12-03T23:40:34.024Z,10.10
2018-12-03T23:45:12.900Z,10.20
2018-12-03T23:49:51.564Z,10.20
2018-12-03T23:54:30.400Z,10.20
2018-12-03T23:59:09.192Z,10.10
